Port-aux-Basques, Canada
Current Conditions -  °F | °C
As of 5:00 PM on Sunday 21 Dec 2014 (Local Time) from CWZB Reporting Station
Overcast Overcast  
Wind Chill: 21°   Ceiling: 1700
Heat Index: 27°   Visibility: 9mi
Dew Point: 20°   Wind: 6mph
Humidity: 75%   Direction: 340°NNW
Pressure: 30.37"   Gusts: NA
Location:  47.57°N, 59.14°W
Report Text: CWZB 212000Z AUTO 34005KT 9SM OVC017 M03/M06 A3037 RMK SLP284 T10261065 WSI/SWOB
Loading
Personal Weather Stations






























Interactive Weather Map New forecast layout! Learn more

10-Day Weather Forecast

Advertisements
Track Severe Weather on mobile